Time;durP1;ratioP1;P1;durP2;ratioP2;P2;SDS_P1;SDS_P2;PMS_P1;PMS_P2;Temp;Humidity;BMP_temperature;BMP_pressure;BME280_temperature;BME280_humidity;BME280_pressure;Samples;Min_cycle;Max_cycle;Signal;HPM_P1;HPM_P2
2024/02/05 00:00:04;;;;;;;21.63;3.95;;;11.10;99.90;;;;;;5093833;28;20519;-76
2024/02/05 00:02:30;;;;;;;20.95;5.00;;;11.10;99.90;;;;;;5093919;28;20397;-76
2024/02/05 00:04:56;;;;;;;16.77;4.25;;;11.10;99.90;;;;;;5075800;28;20050;-77
2024/02/05 00:07:22;;;;;;;22.88;4.45;;;11.10;99.90;;;;;;5075884;28;20085;-76
2024/02/05 00:09:47;;;;;;;17.23;3.97;;;11.00;99.90;;;;;;5093808;28;20496;-77
2024/02/05 00:12:14;;;;;;;20.88;4.18;;;11.10;99.90;;;;;;5075700;28;20127;-77
2024/02/05 00:14:40;;;;;;;21.92;5.35;;;11.10;99.90;;;;;;5075848;28;20456;-77
2024/02/05 00:17:06;;;;;;;21.95;5.25;;;11.10;99.90;;;;;;5075666;28;20047;-77
2024/02/05 00:19:32;;;;;;;16.83;5.40;;;11.10;99.90;;;;;;5093694;28;20050;-77
2024/02/05 00:21:57;;;;;;;19.70;5.50;;;11.00;99.90;;;;;;5093590;28;20036;-77
2024/02/05 00:24:23;;;;;;;20.15;4.63;;;11.00;99.90;;;;;;5075522;28;20036;-77
2024/02/05 00:26:49;;;;;;;24.35;5.30;;;11.10;99.90;;;;;;5093430;28;20111;-77
2024/02/05 00:29:15;;;;;;;25.85;5.03;;;11.10;99.90;;;;;;5074972;28;20064;-76
2024/02/05 00:31:40;;;;;;;21.05;4.53;;;11.10;99.90;;;;;;5075678;28;20075;-76
2024/02/05 00:34:06;;;;;;;23.63;5.18;;;11.10;99.90;;;;;;5075680;28;20089;-76
2024/02/05 00:36:32;;;;;;;22.33;4.28;;;11.00;99.90;;;;;;5075411;28;20089;-76
2024/02/05 00:38:58;;;;;;;15.70;5.20;;;11.10;99.90;;;;;;5075519;28;20043;-77
2024/02/05 00:41:23;;;;;;;22.70;5.97;;;11.10;99.90;;;;;;5075265;28;20495;-76
2024/02/05 00:43:49;;;;;;;24.85;6.35;;;11.10;99.90;;;;;;5075649;28;20496;-76
2024/02/05 00:46:26;;;;;;;24.52;5.40;;;11.10;99.90;;;;;;5093304;28;20039;-76
2024/02/05 00:48:53;;;;;;;26.92;7.57;;;11.10;99.90;;;;;;5074816;28;20036;-76
2024/02/05 00:51:18;;;;;;;31.30;5.82;;;11.00;99.90;;;;;;5074672;28;20146;-77
2024/02/05 00:53:44;;;;;;;24.60;5.50;;;11.10;99.90;;;;;;5074743;28;20071;-77
2024/02/05 00:56:13;;;;;;;26.00;5.80;;;11.00;99.90;;;;;;5057714;28;20071;-77
2024/02/05 00:58:39;;;;;;;26.80;5.65;;;11.00;99.90;;;;;;5074012;28;20063;-77
2024/02/05 01:01:05;;;;;;;20.85;5.15;;;11.00;99.90;;;;;;5092816;28;20678;-77
2024/02/05 01:03:31;;;;;;;23.02;5.40;;;11.00;99.90;;;;;;5093307;28;20082;-76
2024/02/05 01:05:57;;;;;;;23.13;5.15;;;10.90;99.90;;;;;;5075019;28;20082;-76
2024/02/05 01:08:23;;;;;;;27.05;5.05;;;11.00;99.90;;;;;;5075076;28;20075;-77
2024/02/05 01:10:48;;;;;;;22.80;4.70;;;11.00;99.90;;;;;;5074031;28;20582;-77
2024/02/05 01:13:14;;;;;;;23.23;5.60;;;10.90;99.90;;;;;;5074645;28;20097;-76
2024/02/05 01:15:41;;;;;;;21.02;4.88;;;10.90;99.90;;;;;;5074811;28;20453;-77
2024/02/05 01:18:06;;;;;;;25.60;5.18;;;11.00;99.90;;;;;;5092619;28;20118;-77
2024/02/05 01:20:32;;;;;;;21.35;4.68;;;11.00;99.90;;;;;;5074604;28;20542;-76
2024/02/05 01:22:58;;;;;;;29.30;6.68;;;11.00;99.90;;;;;;5074511;28;20411;-76
2024/02/05 01:25:23;;;;;;;17.90;6.22;;;10.90;99.90;;;;;;5092399;28;20043;-76
2024/02/05 01:27:49;;;;;;;20.73;5.68;;;10.90;99.90;;;;;;5092264;28;20032;-76
2024/02/05 01:30:15;;;;;;;17.60;4.20;;;10.80;99.90;;;;;;5074716;28;20040;-76
2024/02/05 01:32:41;;;;;;;22.20;5.50;;;10.90;99.90;;;;;;5074603;28;20078;-76
2024/02/05 01:35:07;;;;;;;19.20;4.50;;;10.90;99.90;;;;;;5074615;28;20091;-76
2024/02/05 01:37:32;;;;;;;21.23;5.53;;;10.90;99.90;;;;;;5091928;28;20487;-76
2024/02/05 01:39:58;;;;;;;25.70;6.93;;;10.90;99.90;;;;;;5074493;28;20032;-76
2024/02/05 01:42:26;;;;;;;24.73;5.95;;;10.90;99.90;;;;;;5074566;28;20535;-76
2024/02/05 01:44:52;;;;;;;16.88;5.05;;;10.90;99.90;;;;;;5074252;28;20035;-76
2024/02/05 01:47:20;;;;;;;24.55;6.07;;;10.90;99.90;;;;;;5057544;28;20380;-77
2024/02/05 01:49:47;;;;;;;24.23;6.07;;;10.80;99.90;;;;;;5092015;28;20124;-76
2024/02/05 01:52:18;;;;;;;36.42;6.35;;;10.80;99.90;;;;;;5092001;28;20376;-76
2024/02/05 01:54:45;;;;;;;22.98;5.95;;;10.80;99.90;;;;;;5074315;28;20044;-76
2024/02/05 01:57:11;;;;;;;30.02;5.53;;;10.80;99.90;;;;;;5057500;28;20082;-76
2024/02/05 01:59:38;;;;;;;22.92;4.63;;;10.80;99.90;;;;;;5092256;28;20042;-76
2024/02/05 02:02:04;;;;;;;24.38;4.60;;;10.80;99.90;;;;;;5074306;28;20036;-76
2024/02/05 02:04:29;;;;;;;23.48;5.63;;;10.80;99.90;;;;;;5074574;28;20123;-76
2024/02/05 02:06:55;;;;;;;25.27;5.32;;;10.80;99.90;;;;;;5074287;28;20119;-76
2024/02/05 02:09:22;;;;;;;23.75;5.45;;;10.80;99.90;;;;;;5074731;28;20431;-76
2024/02/05 02:11:48;;;;;;;29.00;6.03;;;10.80;99.90;;;;;;5078045;28;20048;-76
2024/02/05 02:14:13;;;;;;;27.35;6.18;;;10.80;99.90;;;;;;5096410;28;20123;-76
2024/02/05 02:16:39;;;;;;;23.13;5.72;;;10.80;99.90;;;;;;5095899;28;20128;-76
2024/02/05 02:19:32;;;;;;;30.00;8.35;;;10.70;99.90;;;;;;5077690;28;20399;-76
2024/02/05 02:22:13;;;;;;;23.90;5.75;;;10.70;99.90;;;;;;5077652;28;20066;-76
2024/02/05 02:24:39;;;;;;;24.85;7.22;;;10.70;99.90;;;;;;5077542;28;20089;-76
2024/02/05 02:27:05;;;;;;;25.25;5.85;;;10.80;99.90;;;;;;5095971;28;20071;-76
2024/02/05 02:29:31;;;;;;;27.08;7.20;;;10.80;99.90;;;;;;5060977;28;20078;-76
2024/02/05 02:32:16;;;;;;;27.42;5.15;;;10.80;99.90;;;;;;5078023;28;20075;-76
2024/02/05 02:34:44;;;;;;;29.40;5.65;;;10.80;99.90;;;;;;5077862;28;20514;-76
2024/02/05 02:37:12;;;;;;;22.85;5.72;;;10.90;99.90;;;;;;5077252;28;20513;-76
2024/02/05 02:40:05;;;;;;;25.48;6.18;;;10.80;99.90;;;;;;5060815;28;20036;-76
2024/02/05 02:42:31;;;;;;;24.40;5.80;;;10.80;99.90;;;;;;5077216;28;20052;-76
2024/02/05 02:44:58;;;;;;;23.77;6.03;;;10.80;99.90;;;;;;5095874;28;20441;-76
2024/02/05 02:47:24;;;;;;;24.25;6.25;;;10.80;99.90;;;;;;5077140;28;20399;-76
2024/02/05 02:49:50;;;;;;;29.73;7.63;;;10.80;99.90;;;;;;5077136;28;20123;-76
2024/02/05 02:52:16;;;;;;;30.05;6.78;;;10.90;99.90;;;;;;5095924;28;20119;-76
2024/02/05 02:54:42;;;;;;;32.75;7.22;;;10.80;99.90;;;;;;5077179;28;20050;-76
2024/02/05 02:57:07;;;;;;;24.10;6.15;;;10.80;99.90;;;;;;5094919;28;20039;-76
2024/02/05 02:59:33;;;;;;;28.52;6.03;;;10.80;99.90;;;;;;5095330;28;20085;-76
2024/02/05 03:01:58;;;;;;;30.52;6.60;;;10.80;99.90;;;;;;5077252;28;20076;-76
2024/02/05 03:04:24;;;;;;;23.85;5.95;;;10.90;99.90;;;;;;5076943;28;20036;-76
2024/02/05 03:06:50;;;;;;;34.47;7.55;;;10.80;99.90;;;;;;5077249;28;20131;-75
2024/02/05 03:09:16;;;;;;;27.02;6.03;;;10.80;99.90;;;;;;5076852;28;20071;-76
2024/02/05 03:11:41;;;;;;;27.85;5.38;;;10.80;99.90;;;;;;5077454;28;20442;-76
2024/02/05 03:14:07;;;;;;;29.38;5.47;;;10.80;99.90;;;;;;5077082;28;20047;-76
2024/02/05 03:16:32;;;;;;;28.63;6.53;;;10.70;99.90;;;;;;5076806;28;20543;-75
2024/02/05 03:18:58;;;;;;;34.88;6.72;;;10.70;99.90;;;;;;5077439;28;20036;-76
2024/02/05 03:21:23;;;;;;;25.13;6.88;;;10.70;99.90;;;;;;5076335;28;20043;-76
2024/02/05 03:23:49;;;;;;;21.38;6.10;;;10.70;99.90;;;;;;5095390;28;20028;-76
2024/02/05 03:26:15;;;;;;;31.80;7.22;;;10.80;99.90;;;;;;5095143;28;20678;-76
2024/02/05 03:28:40;;;;;;;29.98;7.03;;;10.80;99.90;;;;;;5076872;28;20036;-76
2024/02/05 03:31:06;;;;;;;29.17;8.70;;;10.70;99.90;;;;;;5094964;28;20048;-76
2024/02/05 03:33:32;;;;;;;30.15;6.63;;;10.80;99.90;;;;;;5094735;28;20040;-76
2024/02/05 03:35:58;;;;;;;27.10;6.30;;;10.70;99.90;;;;;;5076913;28;20061;-76
2024/02/05 03:38:23;;;;;;;29.38;7.07;;;10.60;99.90;;;;;;5076476;28;20498;-77
2024/02/05 03:40:49;;;;;;;22.27;5.35;;;10.70;99.90;;;;;;5076360;28;20040;-76
2024/02/05 03:43:14;;;;;;;34.95;6.85;;;10.70;99.90;;;;;;5094810;28;20036;-76
2024/02/05 03:45:40;;;;;;;33.28;8.02;;;10.70;99.90;;;;;;5076169;28;20058;-76
2024/02/05 03:48:07;;;;;;;21.83;6.57;;;10.60;99.90;;;;;;5076316;28;20036;-76
2024/02/05 03:50:33;;;;;;;25.42;6.82;;;10.50;99.90;;;;;;5076419;28;20044;-76
2024/02/05 03:52:58;;;;;;;28.27;6.75;;;10.50;99.90;;;;;;5076489;28;20035;-75
2024/02/05 03:55:24;;;;;;;25.42;7.65;;;10.50;99.90;;;;;;5094048;28;20044;-76
2024/02/05 03:58:03;;;;;;;22.92;6.35;;;10.50;99.90;;;;;;5094337;28;20044;-76
2024/02/05 04:00:30;;;;;;;24.73;6.68;;;10.40;99.90;;;;;;5075932;28;20541;-76
2024/02/05 04:02:56;;;;;;;27.30;6.85;;;10.50;99.90;;;;;;5076033;28;20089;-76
2024/02/05 04:05:22;;;;;;;31.65;6.97;;;10.40;99.90;;;;;;5076165;28;20034;-76
2024/02/05 04:07:47;;;;;;;34.75;6.82;;;10.50;99.90;;;;;;5093861;28;20487;-76
2024/02/05 04:10:13;;;;;;;28.70;7.97;;;10.40;99.90;;;;;;5075825;28;20168;-76
2024/02/05 04:12:39;;;;;;;28.63;7.50;;;10.40;99.90;;;;;;5076486;28;20073;-76
2024/02/05 04:15:07;;;;;;;33.75;7.28;;;10.30;99.90;;;;;;5076343;28;20123;-76
2024/02/05 04:17:32;;;;;;;32.08;6.68;;;10.30;99.90;;;;;;5093997;28;20388;-76
2024/02/05 04:19:58;;;;;;;25.20;6.65;;;10.20;99.90;;;;;;5076050;28;20039;-76
2024/02/05 04:22:24;;;;;;;26.88;8.23;;;10.30;99.90;;;;;;5074669;28;20129;-76
2024/02/05 04:24:49;;;;;;;30.70;9.07;;;10.20;99.90;;;;;;5093036;28;20460;-76
2024/02/05 04:27:15;;;;;;;25.85;7.78;;;10.20;99.90;;;;;;5075543;28;20122;-76
2024/02/05 04:29:40;;;;;;;31.52;7.53;;;10.30;99.90;;;;;;5075252;28;20028;-77
2024/02/05 04:32:06;;;;;;;29.35;8.00;;;10.30;99.90;;;;;;5058228;28;20048;-76
2024/02/05 04:34:32;;;;;;;23.85;7.00;;;10.30;99.90;;;;;;5093695;28;20118;-76
2024/02/05 04:36:57;;;;;;;24.40;6.90;;;10.30;99.90;;;;;;5093115;28;20573;-76
2024/02/05 04:39:23;;;;;;;34.38;8.27;;;10.30;99.90;;;;;;5075091;28;20040;-76
2024/02/05 04:41:49;;;;;;;28.98;7.10;;;10.20;99.90;;;;;;5093356;28;20040;-76
2024/02/05 04:44:15;;;;;;;28.30;7.80;;;10.30;99.90;;;;;;5075244;28;20040;-76
2024/02/05 04:46:41;;;;;;;28.83;7.43;;;10.30;99.90;;;;;;5075013;28;20036;-76
2024/02/05 04:49:07;;;;;;;26.23;7.03;;;10.30;99.90;;;;;;5074872;28;20407;-76
2024/02/05 04:51:32;;;;;;;27.63;7.68;;;10.20;99.90;;;;;;5093169;28;20032;-77
2024/02/05 04:53:58;;;;;;;35.05;9.38;;;10.20;99.90;;;;;;5075227;28;20043;-76
2024/02/05 04:56:24;;;;;;;25.63;7.50;;;10.20;99.90;;;;;;5075048;28;20036;-76
2024/02/05 04:58:51;;;;;;;30.10;7.53;;;10.20;99.90;;;;;;5093287;28;20077;-76
2024/02/05 05:01:17;;;;;;;38.95;9.38;;;10.20;99.90;;;;;;5074784;28;20112;-76
2024/02/05 05:03:42;;;;;;;26.42;7.43;;;10.20;99.90;;;;;;5092912;28;20040;-76
2024/02/05 05:06:08;;;;;;;30.25;7.07;;;10.10;99.90;;;;;;5092692;28;20028;-76
2024/02/05 05:08:34;;;;;;;32.78;6.85;;;10.20;99.90;;;;;;5057987;28;20086;-76
2024/02/05 05:10:59;;;;;;;30.58;7.50;;;10.20;99.90;;;;;;5074942;28;20032;-76
2024/02/05 05:13:25;;;;;;;37.15;7.43;;;10.20;99.90;;;;;;5074753;28;20517;-76
2024/02/05 05:15:51;;;;;;;30.33;9.00;;;10.10;99.90;;;;;;5074746;28;20036;-76
2024/02/05 05:18:17;;;;;;;27.60;7.43;;;10.20;99.90;;;;;;5092410;28;20047;-77
2024/02/05 05:20:43;;;;;;;26.13;7.70;;;10.20;99.90;;;;;;5074420;28;20124;-76
2024/02/05 05:23:08;;;;;;;29.30;7.95;;;10.20;99.90;;;;;;5074617;28;20039;-76
2024/02/05 05:25:36;;;;;;;32.28;8.05;;;10.10;99.90;;;;;;5074589;28;20444;-76
2024/02/05 05:28:06;;;;;;;39.20;8.38;;;10.10;99.90;;;;;;5074242;28;20072;-76
2024/02/05 05:30:32;;;;;;;33.38;7.10;;;10.10;99.90;;;;;;5092410;28;20043;-76
2024/02/05 05:32:58;;;;;;;31.70;7.50;;;10.20;99.90;;;;;;5073933;28;20040;-76
2024/02/05 05:35:23;;;;;;;31.20;7.25;;;10.10;99.90;;;;;;5073900;28;20066;-76
2024/02/05 05:37:49;;;;;;;35.70;8.90;;;10.10;99.90;;;;;;5073792;28;20055;-76
2024/02/05 05:40:15;;;;;;;32.40;7.07;;;10.20;99.90;;;;;;5092024;28;20047;-76
2024/02/05 05:42:41;;;;;;;35.65;8.85;;;10.20;99.90;;;;;;5073250;28;20051;-76
2024/02/05 05:45:06;;;;;;;29.20;7.43;;;10.10;99.90;;;;;;5091900;28;20039;-76
2024/02/05 05:47:33;;;;;;;25.10;7.32;;;10.10;99.90;;;;;;5056548;28;20028;-76
2024/02/05 05:49:58;;;;;;;30.98;7.07;;;10.10;99.90;;;;;;5073576;28;20541;-77
2024/02/05 05:52:24;;;;;;;31.95;6.85;;;10.00;99.90;;;;;;5091888;28;20048;-76
2024/02/05 05:54:50;;;;;;;25.35;6.97;;;10.00;99.90;;;;;;5057124;28;20032;-76
2024/02/05 05:57:15;;;;;;;40.97;7.72;;;10.00;99.90;;;;;;5091553;28;20100;-76
2024/02/05 05:59:41;;;;;;;36.35;7.38;;;10.00;99.90;;;;;;5091749;28;20075;-76
2024/02/05 06:02:07;;;;;;;30.30;6.97;;;10.00;99.90;;;;;;5073497;28;20071;-76
2024/02/05 06:04:35;;;;;;;26.73;8.52;;;10.00;99.90;;;;;;5091598;28;20115;-76
2024/02/05 06:07:04;;;;;;;24.85;6.43;;;9.90;99.90;;;;;;5056686;28;20068;-76
2024/02/05 06:09:30;;;;;;;21.83;8.23;;;9.90;99.90;;;;;;5056646;28;20078;-76
2024/02/05 06:11:55;;;;;;;26.40;7.05;;;9.90;99.90;;;;;;5073836;28;20044;-76
2024/02/05 06:14:21;;;;;;;41.70;8.95;;;9.90;99.90;;;;;;5073478;28;20069;-77
2024/02/05 06:16:46;;;;;;;27.15;7.38;;;10.00;99.90;;;;;;5073180;28;20036;-76
2024/02/05 06:19:12;;;;;;;32.35;9.05;;;9.90;99.90;;;;;;5074833;28;20071;-76
2024/02/05 06:21:38;;;;;;;28.00;7.47;;;9.90;99.90;;;;;;5073512;28;20036;-75
2024/02/05 06:24:03;;;;;;;29.42;7.88;;;10.00;99.90;;;;;;5073510;28;20471;-76
2024/02/05 06:26:29;;;;;;;20.65;6.60;;;9.90;99.90;;;;;;5091553;28;20032;-75
2024/02/05 06:28:55;;;;;;;35.80;8.00;;;10.00;99.90;;;;;;5073379;28;20089;-75
2024/02/05 06:31:20;;;;;;;30.30;7.95;;;9.90;99.90;;;;;;5073216;28;20446;-76
2024/02/05 06:33:47;;;;;;;29.90;8.13;;;9.90;99.90;;;;;;5091448;28;20051;-76
2024/02/05 06:36:13;;;;;;;31.20;8.30;;;9.90;99.90;;;;;;5073431;28;20040;-75
2024/02/05 06:38:40;;;;;;;31.25;8.05;;;9.90;99.90;;;;;;5073455;28;20034;-76
2024/02/05 06:41:06;;;;;;;28.30;7.03;;;9.90;99.90;;;;;;5073048;28;20043;-76
2024/02/05 06:43:33;;;;;;;26.05;6.20;;;9.90;99.90;;;;;;5056549;28;20570;-75
2024/02/05 06:45:59;;;;;;;31.67;8.52;;;9.90;99.90;;;;;;5072276;28;20043;-76
2024/02/05 06:48:25;;;;;;;26.90;7.15;;;9.80;99.90;;;;;;5091199;28;20098;-76
2024/02/05 06:50:51;;;;;;;27.23;8.57;;;9.90;99.90;;;;;;5073343;28;20032;-73
2024/02/05 06:53:17;;;;;;;23.08;6.75;;;9.90;99.90;;;;;;5073123;28;20047;-74
2024/02/05 06:55:43;;;;;;;27.98;6.55;;;9.90;99.90;;;;;;5057268;28;20051;-75
2024/02/05 06:58:12;;;;;;;18.70;6.15;;;9.90;99.90;;;;;;5076374;28;20061;-74
2024/02/05 07:00:38;;;;;;;37.67;7.65;;;9.90;99.90;;;;;;5076433;28;20052;-74
2024/02/05 07:03:05;;;;;;;20.17;6.97;;;9.90;99.90;;;;;;5076198;28;20118;-74
2024/02/05 07:05:30;;;;;;;28.88;8.02;;;9.80;99.90;;;;;;5076642;28;20040;-75
2024/02/05 07:07:56;;;;;;;28.33;7.72;;;9.90;99.90;;;;;;5075994;28;20438;-74
2024/02/05 07:10:21;;;;;;;24.25;7.30;;;9.90;99.90;;;;;;5076492;28;20036;-74
2024/02/05 07:12:47;;;;;;;32.28;8.02;;;9.90;99.90;;;;;;5094555;28;20043;-74
2024/02/05 07:15:13;;;;;;;24.90;6.80;;;9.90;99.90;;;;;;5076380;28;20028;-74
2024/02/05 07:17:38;;;;;;;26.50;8.27;;;9.90;99.90;;;;;;5075830;28;20573;-74
2024/02/05 07:20:05;;;;;;;18.50;6.28;;;9.80;99.90;;;;;;5093741;28;20060;-74
2024/02/05 07:22:31;;;;;;;29.27;6.53;;;9.90;99.90;;;;;;5067805;28;20063;-74
2024/02/05 07:24:57;;;;;;;27.00;6.85;;;9.90;99.90;;;;;;5075781;28;20388;-74
2024/02/05 07:27:24;;;;;;;34.42;6.40;;;9.80;99.90;;;;;;5073336;28;20507;-74
2024/02/05 07:29:50;;;;;;;22.35;7.25;;;9.90;99.90;;;;;;5067467;28;20032;-74
2024/02/05 07:32:15;;;;;;;33.75;6.95;;;9.90;99.90;;;;;;5072148;28;20411;-73
2024/02/05 07:34:41;;;;;;;25.67;7.25;;;9.90;99.90;;;;;;5064090;28;20497;-74
2024/02/05 07:37:07;;;;;;;21.90;6.82;;;10.00;99.90;;;;;;5059459;28;20085;-75
2024/02/05 07:39:33;;;;;;;26.08;6.90;;;9.90;99.90;;;;;;5069056;28;20035;-74
2024/02/05 07:41:59;;;;;;;28.42;6.13;;;9.90;99.90;;;;;;5073651;28;20539;-74
2024/02/05 07:44:25;;;;;;;22.35;7.13;;;9.90;99.90;;;;;;5059074;28;20407;-74
2024/02/05 07:46:51;;;;;;;31.60;8.40;;;9.80;99.90;;;;;;5075398;28;20040;-75
2024/02/05 07:49:17;;;;;;;22.63;6.30;;;9.80;99.90;;;;;;5093638;28;20038;-74
2024/02/05 07:51:46;;;;;;;28.73;7.47;;;9.80;99.90;;;;;;5075695;28;20040;-75
2024/02/05 07:54:15;;;;;;;20.83;6.50;;;9.80;99.90;;;;;;5093696;28;20043;-74
2024/02/05 07:56:42;;;;;;;28.77;5.50;;;9.80;99.90;;;;;;5093540;28;20488;-75
2024/02/05 07:59:13;;;;;;;23.73;6.82;;;9.80;99.90;;;;;;5075606;28;20523;-75
2024/02/05 08:01:39;;;;;;;22.95;7.05;;;9.70;99.90;;;;;;5075909;28;20564;-74
2024/02/05 08:04:05;;;;;;;41.53;7.57;;;9.80;99.90;;;;;;5093733;28;20036;-74
2024/02/05 08:06:32;;;;;;;19.52;5.95;;;9.70;99.90;;;;;;5075159;28;20036;-75
2024/02/05 08:08:58;;;;;;;33.88;8.52;;;9.70;99.90;;;;;;5075028;28;20047;-74
2024/02/05 08:11:24;;;;;;;20.88;5.97;;;9.70;99.90;;;;;;5075079;28;20059;-74
2024/02/05 08:13:50;;;;;;;25.30;9.30;;;9.70;99.90;;;;;;5049685;28;20055;-74
2024/02/05 08:16:16;;;;;;;27.58;7.25;;;9.70;99.90;;;;;;5075538;28;20039;-75
2024/02/05 08:18:42;;;;;;;31.23;7.05;;;9.80;99.90;;;;;;5075176;28;20509;-74
2024/02/05 08:21:08;;;;;;;23.60;8.57;;;9.80;99.90;;;;;;5075010;28;20123;-75
2024/02/05 08:23:35;;;;;;;26.67;7.13;;;9.80;99.90;;;;;;5075065;28;20129;-75
2024/02/05 08:26:01;;;;;;;27.90;7.15;;;9.70;99.90;;;;;;5071604;28;20042;-74
2024/02/05 08:28:26;;;;;;;26.88;6.00;;;9.70;99.90;;;;;;5066146;28;20035;-74
2024/02/05 08:30:52;;;;;;;22.35;7.45;;;9.70;99.90;;;;;;5080816;28;20035;-75
2024/02/05 08:33:18;;;;;;;23.90;6.20;;;9.70;99.90;;;;;;5073004;28;20155;-74
2024/02/05 08:35:44;;;;;;;30.60;7.18;;;9.70;99.90;;;;;;5054860;28;20070;-74
2024/02/05 08:38:09;;;;;;;23.40;6.00;;;9.70;99.90;;;;;;5072627;28;20519;-74
2024/02/05 08:40:35;;;;;;;27.02;6.20;;;9.70;99.90;;;;;;5054618;28;20451;-75
2024/02/05 08:43:01;;;;;;;26.38;6.28;;;9.70;99.90;;;;;;5054749;28;20128;-75
2024/02/05 08:45:27;;;;;;;28.13;6.22;;;9.70;99.90;;;;;;5072656;28;20040;-75
2024/02/05 08:47:53;;;;;;;24.17;6.25;;;9.70;99.90;;;;;;5054706;28;20396;-75
2024/02/05 08:50:22;;;;;;;30.83;7.50;;;9.70;99.90;;;;;;5054405;28;20041;-75
2024/02/05 08:52:48;;;;;;;30.65;6.43;;;9.70;99.90;;;;;;5072450;28;20492;-74
2024/02/05 08:55:14;;;;;;;25.25;6.97;;;9.70;99.90;;;;;;5054621;28;20041;-75
2024/02/05 08:57:43;;;;;;;23.10;6.05;;;9.70;99.90;;;;;;5072449;28;20040;-75
2024/02/05 09:00:10;;;;;;;17.88;6.03;;;9.70;99.90;;;;;;5054219;28;20048;-75
2024/02/05 09:02:37;;;;;;;26.98;6.18;;;9.70;99.90;;;;;;5054399;28;20044;-75
2024/02/05 09:05:03;;;;;;;21.50;6.55;;;9.70;99.90;;;;;;5054314;28;20074;-75
2024/02/05 09:07:30;;;;;;;23.13;5.07;;;9.70;99.90;;;;;;5072097;28;20045;-75
2024/02/05 09:09:56;;;;;;;16.02;6.57;;;9.70;99.90;;;;;;5071899;28;20055;-75
2024/02/05 09:12:22;;;;;;;26.05;6.88;;;9.80;99.90;;;;;;5072265;28;20123;-75
2024/02/05 09:14:49;;;;;;;20.38;5.75;;;9.80;99.90;;;;;;5054300;28;20072;-75
2024/02/05 09:17:15;;;;;;;27.25;6.55;;;9.70;99.90;;;;;;5071736;28;20041;-74
2024/02/05 09:19:41;;;;;;;24.55;6.60;;;9.60;99.90;;;;;;5053461;28;20041;-74
2024/02/05 09:22:07;;;;;;;26.00;6.68;;;9.70;99.90;;;;;;5071934;28;20174;-74
2024/02/05 09:24:33;;;;;;;25.98;6.28;;;9.60;99.90;;;;;;5071891;28;20041;-75
2024/02/05 09:26:59;;;;;;;25.23;6.13;;;9.70;99.90;;;;;;5071977;28;20411;-74
2024/02/05 09:29:24;;;;;;;24.90;5.80;;;9.60;99.90;;;;;;5071634;28;20039;-74
2024/02/05 09:31:50;;;;;;;24.27;7.05;;;9.80;99.90;;;;;;5071739;28;20459;-74
2024/02/05 09:34:16;;;;;;;23.75;6.93;;;9.70;99.90;;;;;;5054043;28;20045;-75
2024/02/05 09:36:42;;;;;;;18.05;5.60;;;9.70;99.90;;;;;;5053804;28;20111;-75
2024/02/05 09:39:07;;;;;;;33.20;6.68;;;9.70;99.90;;;;;;5053830;28;20045;-74
2024/02/05 09:41:34;;;;;;;28.85;7.47;;;9.70;99.90;;;;;;5071505;28;20411;-75
2024/02/05 09:44:01;;;;;;;21.88;7.28;;;9.70;99.90;;;;;;5053879;28;20123;-76
2024/02/05 09:46:30;;;;;;;22.95;5.85;;;9.70;99.90;;;;;;5071716;28;20040;-75
2024/02/05 09:48:58;;;;;;;23.83;6.82;;;9.80;99.90;;;;;;5053470;28;20040;-77
2024/02/05 09:51:27;;;;;;;24.65;5.88;;;9.70;99.90;;;;;;5053541;28;20040;-77
2024/02/05 09:53:53;;;;;;;18.98;6.32;;;9.70;99.90;;;;;;5037177;28;20044;-77
2024/02/05 09:56:25;;;;;;;21.42;5.55;;;9.70;99.90;;;;;;5053689;28;20047;-77
2024/02/05 09:58:51;;;;;;;19.25;7.47;;;9.80;99.90;;;;;;5053846;28;20566;-77
2024/02/05 10:01:18;;;;;;;25.75;6.40;;;9.80;99.90;;;;;;5053528;28;20055;-77
2024/02/05 10:03:49;;;;;;;27.70;5.82;;;9.80;99.90;;;;;;5054934;28;20040;-77
2024/02/05 10:06:19;;;;;;;28.05;6.20;;;9.70;99.90;;;;;;5037903;28;20043;-78
2024/02/05 10:08:47;;;;;;;26.30;8.27;;;9.80;99.90;;;;;;5037323;28;20041;-77
2024/02/05 10:11:15;;;;;;;21.52;7.25;;;9.80;99.90;;;;;;5071645;28;20399;-76
2024/02/05 10:13:40;;;;;;;21.08;5.35;;;9.80;99.90;;;;;;5071634;28;20071;-75
2024/02/05 10:16:07;;;;;;;20.50;5.43;;;9.90;99.90;;;;;;5053373;28;20472;-75
2024/02/05 10:18:32;;;;;;;24.13;5.60;;;9.90;99.90;;;;;;5053190;28;20046;-75
2024/02/05 10:21:00;;;;;;;24.98;5.88;;;9.90;99.90;;;;;;5053131;28;20127;-75
2024/02/05 10:23:26;;;;;;;23.55;6.65;;;9.80;99.90;;;;;;5057242;28;20048;-75
2024/02/05 10:25:56;;;;;;;28.85;6.72;;;9.80;99.90;;;;;;5062761;28;20081;-75
2024/02/05 10:28:21;;;;;;;25.00;7.90;;;9.90;99.90;;;;;;5081899;28;20032;-75
2024/02/05 10:30:47;;;;;;;16.90;5.97;;;9.90;99.90;;;;;;5088023;28;20452;-75
2024/02/05 10:33:19;;;;;;;21.77;5.75;;;9.90;99.90;;;;;;5095327;28;20092;-75
2024/02/05 10:35:45;;;;;;;21.55;5.93;;;9.90;99.90;;;;;;5095567;28;20044;-75
2024/02/05 10:38:11;;;;;;;20.27;6.30;;;9.90;99.90;;;;;;5077048;28;20047;-75
2024/02/05 10:40:37;;;;;;;24.52;5.75;;;10.00;99.90;;;;;;5077052;28;20036;-75
2024/02/05 10:43:04;;;;;;;16.23;5.78;;;10.10;99.90;;;;;;5095155;28;20063;-75
2024/02/05 10:45:39;;;;;;;18.45;7.28;;;10.10;99.90;;;;;;5095162;28;20123;-76
2024/02/05 10:48:05;;;;;;;19.23;7.05;;;10.10;99.90;;;;;;5095075;28;20515;-78
2024/02/05 10:50:31;;;;;;;21.80;5.55;;;10.10;99.90;;;;;;5095169;28;20040;-75
2024/02/05 10:52:58;;;;;;;18.13;6.18;;;10.00;99.90;;;;;;5060298;28;20108;-75
2024/02/05 10:55:24;;;;;;;20.58;5.38;;;10.10;99.90;;;;;;5077062;28;20395;-75
2024/02/05 10:57:54;;;;;;;18.55;5.18;;;10.00;99.90;;;;;;5076683;28;20098;-75
2024/02/05 11:00:21;;;;;;;21.92;5.18;;;10.00;99.90;;;;;;5094625;28;20546;-76
2024/02/05 11:02:55;;;;;;;20.10;4.65;;;10.00;99.90;;;;;;5095003;28;20058;-75
2024/02/05 11:05:22;;;;;;;22.77;6.32;;;10.00;99.90;;;;;;5076533;28;20134;-75
2024/02/05 11:07:57;;;;;;;20.83;5.75;;;10.00;99.90;;;;;;5094622;28;20032;-75
2024/02/05 11:10:25;;;;;;;16.58;6.78;;;10.00;99.90;;;;;;5059971;28;20123;-75
2024/02/05 11:13:02;;;;;;;25.83;4.88;;;10.00;99.90;;;;;;5076235;28;20046;-75
2024/02/05 11:15:31;;;;;;;20.92;5.63;;;10.00;99.90;;;;;;5076355;28;20047;-75
2024/02/05 11:18:01;;;;;;;21.65;5.38;;;10.00;99.90;;;;;;5094341;28;20097;-75
2024/02/05 11:20:28;;;;;;;22.55;6.10;;;10.00;99.90;;;;;;5076145;28;20090;-74
2024/02/05 11:22:56;;;;;;;20.80;5.43;;;10.00;99.90;;;;;;5076258;28;20062;-75
2024/02/05 11:25:22;;;;;;;27.55;6.40;;;9.90;99.90;;;;;;5094313;28;20089;-75
2024/02/05 11:27:48;;;;;;;20.30;6.05;;;10.00;99.90;;;;;;5094599;28;20078;-75
2024/02/05 11:30:16;;;;;;;19.80;5.78;;;9.90;99.90;;;;;;5076342;28;20071;-74
2024/02/05 11:32:42;;;;;;;20.08;5.80;;;9.90;99.90;;;;;;5076193;28;20075;-74
2024/02/05 11:35:13;;;;;;;20.35;5.40;;;9.90;99.90;;;;;;5059469;28;20071;-75
2024/02/05 11:37:41;;;;;;;13.85;4.80;;;10.00;99.90;;;;;;5076228;28;20119;-75
2024/02/05 11:40:17;;;;;;;21.08;5.30;;;10.00;99.90;;;;;;5076054;28;20063;-75
2024/02/05 11:42:43;;;;;;;16.20;4.82;;;9.90;99.90;;;;;;5093707;28;20044;-75
2024/02/05 11:45:10;;;;;;;20.58;5.95;;;9.90;99.90;;;;;;5075827;28;20035;-75
2024/02/05 11:47:36;;;;;;;19.02;5.03;;;9.80;99.90;;;;;;5081710;28;20036;-85
2024/02/05 11:50:07;;;;;;;19.90;5.28;;;9.90;99.90;;;;;;5087555;28;20038;-83
2024/02/05 11:52:38;;;;;;;29.98;6.57;;;9.90;99.90;;;;;;5104701;28;20081;-80
2024/02/05 11:55:05;;;;;;;19.38;5.28;;;9.90;99.90;;;;;;5088769;28;20040;-83
2024/02/05 11:57:31;;;;;;;27.08;6.60;;;9.90;99.90;;;;;;5106490;28;20036;-84
2024/02/05 11:59:57;;;;;;;19.40;4.63;;;10.00;99.90;;;;;;5103683;28;20032;-81
2024/02/05 12:02:23;;;;;;;16.17;4.95;;;9.90;99.90;;;;;;5106355;28;20089;-82
2024/02/05 12:04:50;;;;;;;16.63;5.05;;;9.90;99.90;;;;;;5089313;28;20043;-82
2024/02/05 12:07:16;;;;;;;14.55;5.50;;;9.90;99.90;;;;;;5104435;28;20078;-82
2024/02/05 12:09:41;;;;;;;20.20;4.82;;;9.90;99.90;;;;;;5068411;28;20036;-81
2024/02/05 12:12:08;;;;;;;26.98;6.10;;;9.90;99.90;;;;;;5075261;28;20115;-83
2024/02/05 12:14:38;;;;;;;17.02;5.72;;;9.80;99.90;;;;;;5081228;28;20063;-83
2024/02/05 12:17:13;;;;;;;23.15;5.32;;;9.80;99.90;;;;;;5079115;28;20039;-83
2024/02/05 12:19:39;;;;;;;21.35;5.25;;;9.70;99.90;;;;;;5091069;28;20055;-82
2024/02/05 12:22:05;;;;;;;25.58;4.85;;;9.80;99.90;;;;;;5072866;28;20099;-82
2024/02/05 12:24:31;;;;;;;22.55;5.60;;;9.90;99.90;;;;;;5058898;28;20028;-82
2024/02/05 12:26:57;;;;;;;18.45;5.50;;;9.80;99.90;;;;;;5092656;28;20502;-81
2024/02/05 12:29:23;;;;;;;19.65;4.85;;;9.80;99.90;;;;;;5094294;28;20037;-82
2024/02/05 12:31:51;;;;;;;18.73;5.78;;;9.80;99.90;;;;;;5097588;28;20036;-81
2024/02/05 12:34:20;;;;;;;19.05;5.20;;;9.80;99.90;;;;;;5082543;28;20036;-82
2024/02/05 12:36:47;;;;;;;18.73;4.63;;;9.80;99.90;;;;;;5100139;28;20428;-80